sensor_id;sensor_type;location;lat;lon;timestamp;P1;durP1;ratioP1;P2;durP2;ratioP2
60312;SDS011;46158;52.850;6.970;2022-08-19T00:01:53;3.15;;;2.20;;
60312;SDS011;46158;52.850;6.970;2022-08-19T00:04:21;4.13;;;2.25;;
60312;SDS011;46158;52.850;6.970;2022-08-19T00:06:49;4.45;;;2.15;;
60312;SDS011;46158;52.850;6.970;2022-08-19T00:09:16;5.32;;;2.30;;
60312;SDS011;46158;52.850;6.970;2022-08-19T00:11:43;5.50;;;2.45;;
60312;SDS011;46158;52.850;6.970;2022-08-19T00:14:10;4.72;;;2.03;;
60312;SDS011;46158;52.850;6.970;2022-08-19T00:16:37;3.45;;;2.20;;
60312;SDS011;46158;52.850;6.970;2022-08-19T00:19:04;4.85;;;2.20;;
60312;SDS011;46158;52.850;6.970;2022-08-19T00:21:30;3.22;;;2.30;;
60312;SDS011;46158;52.850;6.970;2022-08-19T00:23:56;5.55;;;2.72;;
60312;SDS011;46158;52.850;6.970;2022-08-19T00:26:26;2.75;;;2.20;;
60312;SDS011;46158;52.850;6.970;2022-08-19T00:28:53;4.85;;;2.40;;
60312;SDS011;46158;52.850;6.970;2022-08-19T00:31:19;4.50;;;2.53;;
60312;SDS011;46158;52.850;6.970;2022-08-19T00:33:45;3.78;;;2.22;;
60312;SDS011;46158;52.850;6.970;2022-08-19T00:36:11;5.60;;;2.47;;
60312;SDS011;46158;52.850;6.970;2022-08-19T00:38:37;4.40;;;2.50;;
60312;SDS011;46158;52.850;6.970;2022-08-19T00:41:09;5.32;;;2.22;;
60312;SDS011;46158;52.850;6.970;2022-08-19T00:43:37;3.25;;;2.17;;
60312;SDS011;46158;52.850;6.970;2022-08-19T00:46:03;3.78;;;2.10;;
60312;SDS011;46158;52.850;6.970;2022-08-19T00:48:30;3.78;;;2.30;;
60312;SDS011;46158;52.850;6.970;2022-08-19T00:50:57;3.72;;;2.20;;
60312;SDS011;46158;52.850;6.970;2022-08-19T00:53:24;4.22;;;2.25;;
60312;SDS011;46158;52.850;6.970;2022-08-19T00:55:52;5.07;;;2.20;;
60312;SDS011;46158;52.850;6.970;2022-08-19T00:58:22;5.60;;;2.20;;
60312;SDS011;46158;52.850;6.970;2022-08-19T01:00:52;4.30;;;2.30;;
60312;SDS011;46158;52.850;6.970;2022-08-19T01:03:18;3.05;;;2.05;;
60312;SDS011;46158;52.850;6.970;2022-08-19T01:05:46;2.80;;;2.10;;
60312;SDS011;46158;52.850;6.970;2022-08-19T01:08:14;3.70;;;2.10;;
60312;SDS011;46158;52.850;6.970;2022-08-19T01:10:43;2.20;;;1.95;;
60312;SDS011;46158;52.850;6.970;2022-08-19T01:13:14;2.35;;;1.80;;
60312;SDS011;46158;52.850;6.970;2022-08-19T01:15:50;1.83;;;1.70;;
60312;SDS011;46158;52.850;6.970;2022-08-19T01:18:19;2.42;;;1.80;;
60312;SDS011;46158;52.850;6.970;2022-08-19T01:20:45;2.45;;;1.85;;
60312;SDS011;46158;52.850;6.970;2022-08-19T01:23:12;2.55;;;1.77;;
60312;SDS011;46158;52.850;6.970;2022-08-19T01:25:41;2.13;;;1.85;;
60312;SDS011;46158;52.850;6.970;2022-08-19T01:28:16;1.90;;;1.70;;
60312;SDS011;46158;52.850;6.970;2022-08-19T01:30:43;2.58;;;1.65;;
60312;SDS011;46158;52.850;6.970;2022-08-19T01:33:09;3.35;;;1.60;;
60312;SDS011;46158;52.850;6.970;2022-08-19T01:35:35;3.28;;;1.85;;
60312;SDS011;46158;52.850;6.970;2022-08-19T01:38:04;2.10;;;1.90;;
60312;SDS011;46158;52.850;6.970;2022-08-19T01:40:33;2.90;;;1.67;;
60312;SDS011;46158;52.850;6.970;2022-08-19T01:42:59;3.65;;;1.70;;
60312;SDS011;46158;52.850;6.970;2022-08-19T01:45:27;1.67;;;1.58;;
60312;SDS011;46158;52.850;6.970;2022-08-19T01:47:54;3.30;;;1.65;;
60312;SDS011;46158;52.850;6.970;2022-08-19T01:50:20;2.95;;;1.92;;
60312;SDS011;46158;52.850;6.970;2022-08-19T01:52:47;2.65;;;1.80;;
60312;SDS011;46158;52.850;6.970;2022-08-19T01:55:18;2.30;;;1.58;;
60312;SDS011;46158;52.850;6.970;2022-08-19T01:57:49;3.42;;;1.88;;
60312;SDS011;46158;52.850;6.970;2022-08-19T02:00:20;2.35;;;1.90;;
60312;SDS011;46158;52.850;6.970;2022-08-19T02:02:47;2.42;;;1.83;;
60312;SDS011;46158;52.850;6.970;2022-08-19T02:05:13;2.03;;;1.80;;
60312;SDS011;46158;52.850;6.970;2022-08-19T02:07:39;2.42;;;1.88;;
60312;SDS011;46158;52.850;6.970;2022-08-19T02:10:07;2.95;;;1.80;;
60312;SDS011;46158;52.850;6.970;2022-08-19T02:12:35;2.00;;;1.80;;
60312;SDS011;46158;52.850;6.970;2022-08-19T02:15:01;3.03;;;2.00;;
60312;SDS011;46158;52.850;6.970;2022-08-19T02:17:28;2.95;;;1.90;;
60312;SDS011;46158;52.850;6.970;2022-08-19T02:19:55;2.30;;;1.80;;
60312;SDS011;46158;52.850;6.970;2022-08-19T02:22:21;3.00;;;2.05;;
60312;SDS011;46158;52.850;6.970;2022-08-19T02:24:50;2.33;;;1.90;;
60312;SDS011;46158;52.850;6.970;2022-08-19T02:27:17;2.85;;;2.00;;
60312;SDS011;46158;52.850;6.970;2022-08-19T02:29:42;2.85;;;1.95;;
60312;SDS011;46158;52.850;6.970;2022-08-19T02:32:08;2.65;;;1.92;;
60312;SDS011;46158;52.850;6.970;2022-08-19T02:34:34;3.28;;;1.92;;
60312;SDS011;46158;52.850;6.970;2022-08-19T02:37:00;2.53;;;1.90;;
60312;SDS011;46158;52.850;6.970;2022-08-19T02:39:25;3.83;;;2.10;;
60312;SDS011;46158;52.850;6.970;2022-08-19T02:41:51;2.28;;;1.80;;
60312;SDS011;46158;52.850;6.970;2022-08-19T02:44:17;2.63;;;1.90;;
60312;SDS011;46158;52.850;6.970;2022-08-19T02:46:44;2.70;;;1.90;;
60312;SDS011;46158;52.850;6.970;2022-08-19T02:49:12;3.08;;;1.98;;
60312;SDS011;46158;52.850;6.970;2022-08-19T02:51:40;4.25;;;2.10;;
60312;SDS011;46158;52.850;6.970;2022-08-19T02:54:08;4.03;;;2.00;;
60312;SDS011;46158;52.850;6.970;2022-08-19T02:56:35;2.83;;;1.75;;
60312;SDS011;46158;52.850;6.970;2022-08-19T02:59:02;4.70;;;2.20;;
60312;SDS011;46158;52.850;6.970;2022-08-19T03:01:35;4.15;;;2.08;;
60312;SDS011;46158;52.850;6.970;2022-08-19T03:04:02;3.70;;;2.15;;
60312;SDS011;46158;52.850;6.970;2022-08-19T03:06:29;3.45;;;2.10;;
60312;SDS011;46158;52.850;6.970;2022-08-19T03:08:56;3.80;;;2.20;;
60312;SDS011;46158;52.850;6.970;2022-08-19T03:11:23;4.50;;;2.13;;
60312;SDS011;46158;52.850;6.970;2022-08-19T03:13:51;3.67;;;2.10;;
60312;SDS011;46158;52.850;6.970;2022-08-19T03:16:17;3.38;;;2.10;;
60312;SDS011;46158;52.850;6.970;2022-08-19T03:18:44;5.45;;;2.35;;
60312;SDS011;46158;52.850;6.970;2022-08-19T03:21:14;3.38;;;2.00;;
60312;SDS011;46158;52.850;6.970;2022-08-19T03:23:44;3.85;;;2.28;;
60312;SDS011;46158;52.850;6.970;2022-08-19T03:26:10;4.22;;;2.40;;
60312;SDS011;46158;52.850;6.970;2022-08-19T03:28:36;5.72;;;2.58;;
60312;SDS011;46158;52.850;6.970;2022-08-19T03:31:03;3.42;;;2.05;;
60312;SDS011;46158;52.850;6.970;2022-08-19T03:33:32;4.47;;;2.20;;
60312;SDS011;46158;52.850;6.970;2022-08-19T03:35:59;4.25;;;2.30;;
60312;SDS011;46158;52.850;6.970;2022-08-19T03:38:30;4.75;;;2.30;;
60312;SDS011;46158;52.850;6.970;2022-08-19T03:40:57;3.78;;;2.10;;
60312;SDS011;46158;52.850;6.970;2022-08-19T03:43:23;4.03;;;2.28;;
60312;SDS011;46158;52.850;6.970;2022-08-19T03:45:58;4.82;;;2.47;;
60312;SDS011;46158;52.850;6.970;2022-08-19T03:48:48;8.80;;;2.25;;
60312;SDS011;46158;52.850;6.970;2022-08-19T03:51:40;4.80;;;2.50;;
60312;SDS011;46158;52.850;6.970;2022-08-19T03:54:07;4.80;;;2.20;;
60312;SDS011;46158;52.850;6.970;2022-08-19T03:56:35;5.03;;;2.35;;
60312;SDS011;46158;52.850;6.970;2022-08-19T03:59:04;4.45;;;2.20;;
60312;SDS011;46158;52.850;6.970;2022-08-19T04:01:31;4.05;;;2.30;;
60312;SDS011;46158;52.850;6.970;2022-08-19T04:03:57;4.55;;;2.10;;
60312;SDS011;46158;52.850;6.970;2022-08-19T04:06:28;3.63;;;2.20;;
60312;SDS011;46158;52.850;6.970;2022-08-19T04:08:56;4.13;;;2.30;;
60312;SDS011;46158;52.850;6.970;2022-08-19T04:11:27;3.63;;;2.20;;
60312;SDS011;46158;52.850;6.970;2022-08-19T04:13:55;3.38;;;2.10;;
60312;SDS011;46158;52.850;6.970;2022-08-19T04:16:22;4.70;;;2.20;;
60312;SDS011;46158;52.850;6.970;2022-08-19T04:18:49;4.55;;;1.95;;
60312;SDS011;46158;52.850;6.970;2022-08-19T04:21:17;3.05;;;1.90;;
60312;SDS011;46158;52.850;6.970;2022-08-19T04:26:12;3.03;;;1.88;;
60312;SDS011;46158;52.850;6.970;2022-08-19T04:28:49;3.22;;;1.92;;
60312;SDS011;46158;52.850;6.970;2022-08-19T04:31:25;3.40;;;2.00;;
60312;SDS011;46158;52.850;6.970;2022-08-19T04:33:56;3.43;;;2.00;;
60312;SDS011;46158;52.850;6.970;2022-08-19T04:36:24;2.70;;;1.90;;
60312;SDS011;46158;52.850;6.970;2022-08-19T04:38:56;2.03;;;1.70;;
60312;SDS011;46158;52.850;6.970;2022-08-19T04:41:23;13.00;;;3.22;;
60312;SDS011;46158;52.850;6.970;2022-08-19T04:44:08;7.93;;;3.35;;
60312;SDS011;46158;52.850;6.970;2022-08-19T04:46:35;8.77;;;3.47;;
60312;SDS011;46158;52.850;6.970;2022-08-19T04:49:02;12.40;;;4.00;;
60312;SDS011;46158;52.850;6.970;2022-08-19T04:51:30;13.68;;;4.10;;
60312;SDS011;46158;52.850;6.970;2022-08-19T04:53:57;13.77;;;4.32;;
60312;SDS011;46158;52.850;6.970;2022-08-19T04:56:25;14.82;;;4.90;;
60312;SDS011;46158;52.850;6.970;2022-08-19T04:58:52;15.43;;;4.80;;
60312;SDS011;46158;52.850;6.970;2022-08-19T05:01:23;16.35;;;5.40;;
60312;SDS011;46158;52.850;6.970;2022-08-19T05:03:50;16.20;;;5.22;;
60312;SDS011;46158;52.850;6.970;2022-08-19T05:06:18;13.65;;;4.75;;
60312;SDS011;46158;52.850;6.970;2022-08-19T05:08:46;19.45;;;6.70;;
60312;SDS011;46158;52.850;6.970;2022-08-19T05:11:14;21.27;;;8.10;;
60312;SDS011;46158;52.850;6.970;2022-08-19T05:13:42;20.38;;;8.25;;
60312;SDS011;46158;52.850;6.970;2022-08-19T05:16:09;22.10;;;8.80;;
60312;SDS011;46158;52.850;6.970;2022-08-19T05:18:36;25.20;;;9.13;;
60312;SDS011;46158;52.850;6.970;2022-08-19T05:21:20;25.08;;;9.10;;
60312;SDS011;46158;52.850;6.970;2022-08-19T05:24:05;23.17;;;8.25;;
60312;SDS011;46158;52.850;6.970;2022-08-19T05:26:37;24.93;;;8.70;;
60312;SDS011;46158;52.850;6.970;2022-08-19T05:29:04;21.30;;;8.43;;
60312;SDS011;46158;52.850;6.970;2022-08-19T05:31:30;21.85;;;7.47;;
60312;SDS011;46158;52.850;6.970;2022-08-19T05:33:56;22.38;;;8.32;;
60312;SDS011;46158;52.850;6.970;2022-08-19T05:36:24;21.77;;;8.60;;
60312;SDS011;46158;52.850;6.970;2022-08-19T05:38:51;23.20;;;9.68;;
60312;SDS011;46158;52.850;6.970;2022-08-19T05:41:18;22.73;;;10.15;;
60312;SDS011;46158;52.850;6.970;2022-08-19T05:43:45;22.00;;;9.00;;
60312;SDS011;46158;52.850;6.970;2022-08-19T05:46:19;22.40;;;9.73;;
60312;SDS011;46158;52.850;6.970;2022-08-19T05:48:45;20.70;;;8.85;;
60312;SDS011;46158;52.850;6.970;2022-08-19T05:51:11;23.95;;;9.90;;
60312;SDS011;46158;52.850;6.970;2022-08-19T05:53:37;22.17;;;8.80;;
60312;SDS011;46158;52.850;6.970;2022-08-19T05:56:06;23.42;;;10.02;;
60312;SDS011;46158;52.850;6.970;2022-08-19T05:58:33;21.63;;;9.52;;
60312;SDS011;46158;52.850;6.970;2022-08-19T06:01:00;21.00;;;9.65;;
60312;SDS011;46158;52.850;6.970;2022-08-19T06:03:29;22.88;;;9.80;;
60312;SDS011;46158;52.850;6.970;2022-08-19T06:05:56;23.50;;;10.20;;
60312;SDS011;46158;52.850;6.970;2022-08-19T06:08:24;22.67;;;9.98;;
60312;SDS011;46158;52.850;6.970;2022-08-19T06:10:50;21.98;;;9.85;;
60312;SDS011;46158;52.850;6.970;2022-08-19T06:13:15;24.48;;;10.35;;
60312;SDS011;46158;52.850;6.970;2022-08-19T06:15:42;21.95;;;9.93;;
60312;SDS011;46158;52.850;6.970;2022-08-19T06:18:09;21.98;;;10.20;;
60312;SDS011;46158;52.850;6.970;2022-08-19T06:20:35;23.67;;;10.38;;
60312;SDS011;46158;52.850;6.970;2022-08-19T06:23:00;23.38;;;9.88;;
60312;SDS011;46158;52.850;6.970;2022-08-19T06:25:26;22.17;;;10.25;;
60312;SDS011;46158;52.850;6.970;2022-08-19T06:27:52;20.50;;;9.18;;
60312;SDS011;46158;52.850;6.970;2022-08-19T06:30:18;21.45;;;9.45;;
60312;SDS011;46158;52.850;6.970;2022-08-19T06:32:44;20.30;;;8.75;;
60312;SDS011;46158;52.850;6.970;2022-08-19T06:35:09;22.02;;;7.93;;
60312;SDS011;46158;52.850;6.970;2022-08-19T06:37:36;21.75;;;8.70;;
60312;SDS011;46158;52.850;6.970;2022-08-19T06:40:02;22.95;;;9.30;;
60312;SDS011;46158;52.850;6.970;2022-08-19T06:42:28;20.88;;;7.38;;
60312;SDS011;46158;52.850;6.970;2022-08-19T06:44:55;20.67;;;8.57;;
60312;SDS011;46158;52.850;6.970;2022-08-19T06:47:21;20.23;;;7.97;;
60312;SDS011;46158;52.850;6.970;2022-08-19T06:49:47;20.20;;;8.27;;
60312;SDS011;46158;52.850;6.970;2022-08-19T06:52:12;21.10;;;8.35;;
60312;SDS011;46158;52.850;6.970;2022-08-19T06:54:40;19.38;;;7.28;;
60312;SDS011;46158;52.850;6.970;2022-08-19T06:57:07;19.55;;;7.43;;
60312;SDS011;46158;52.850;6.970;2022-08-19T06:59:38;16.65;;;5.90;;
60312;SDS011;46158;52.850;6.970;2022-08-19T07:02:04;21.35;;;7.85;;
60312;SDS011;46158;52.850;6.970;2022-08-19T07:04:32;19.13;;;6.88;;
60312;SDS011;46158;52.850;6.970;2022-08-19T07:07:07;15.65;;;5.80;;
60312;SDS011;46158;52.850;6.970;2022-08-19T07:09:36;17.67;;;5.60;;
60312;SDS011;46158;52.850;6.970;2022-08-19T07:12:05;14.77;;;5.40;;
60312;SDS011;46158;52.850;6.970;2022-08-19T07:14:33;15.85;;;5.43;;
60312;SDS011;46158;52.850;6.970;2022-08-19T07:17:03;16.58;;;5.53;;
60312;SDS011;46158;52.850;6.970;2022-08-19T07:19:33;16.55;;;5.50;;
60312;SDS011;46158;52.850;6.970;2022-08-19T07:22:00;17.27;;;5.88;;
60312;SDS011;46158;52.850;6.970;2022-08-19T07:24:27;15.75;;;5.90;;
60312;SDS011;46158;52.850;6.970;2022-08-19T07:26:54;15.60;;;5.47;;
60312;SDS011;46158;52.850;6.970;2022-08-19T07:29:22;16.00;;;5.07;;
60312;SDS011;46158;52.850;6.970;2022-08-19T07:31:49;16.08;;;5.03;;
60312;SDS011;46158;52.850;6.970;2022-08-19T07:34:15;13.43;;;5.10;;
60312;SDS011;46158;52.850;6.970;2022-08-19T07:36:42;14.48;;;4.47;;
60312;SDS011;46158;52.850;6.970;2022-08-19T07:39:16;13.60;;;4.53;;
60312;SDS011;46158;52.850;6.970;2022-08-19T07:41:45;14.55;;;4.93;;
60312;SDS011;46158;52.850;6.970;2022-08-19T07:44:12;13.60;;;4.47;;
60312;SDS011;46158;52.850;6.970;2022-08-19T07:46:40;13.50;;;4.18;;
60312;SDS011;46158;52.850;6.970;2022-08-19T07:49:09;12.02;;;4.40;;
60312;SDS011;46158;52.850;6.970;2022-08-19T07:51:42;11.98;;;4.10;;
60312;SDS011;46158;52.850;6.970;2022-08-19T07:54:08;14.18;;;4.75;;
60312;SDS011;46158;52.850;6.970;2022-08-19T07:56:34;13.55;;;4.50;;
60312;SDS011;46158;52.850;6.970;2022-08-19T07:58:59;12.27;;;3.90;;
60312;SDS011;46158;52.850;6.970;2022-08-19T08:01:26;13.90;;;4.40;;
60312;SDS011;46158;52.850;6.970;2022-08-19T08:03:53;14.77;;;4.22;;
60312;SDS011;46158;52.850;6.970;2022-08-19T08:06:39;11.63;;;4.40;;
60312;SDS011;46158;52.850;6.970;2022-08-19T08:09:26;12.48;;;4.45;;
60312;SDS011;46158;52.850;6.970;2022-08-19T08:14:33;11.52;;;3.90;;
60312;SDS011;46158;52.850;6.970;2022-08-19T08:17:03;11.90;;;4.05;;
60312;SDS011;46158;52.850;6.970;2022-08-19T08:19:30;10.68;;;3.88;;
60312;SDS011;46158;52.850;6.970;2022-08-19T08:21:57;12.73;;;4.10;;
60312;SDS011;46158;52.850;6.970;2022-08-19T08:24:24;11.10;;;3.80;;
60312;SDS011;46158;52.850;6.970;2022-08-19T08:26:52;12.40;;;3.95;;
60312;SDS011;46158;52.850;6.970;2022-08-19T08:29:17;11.27;;;3.83;;
60312;SDS011;46158;52.850;6.970;2022-08-19T08:31:44;12.23;;;3.85;;
60312;SDS011;46158;52.850;6.970;2022-08-19T08:34:11;13.93;;;4.15;;
60312;SDS011;46158;52.850;6.970;2022-08-19T08:36:38;10.13;;;3.60;;
60312;SDS011;46158;52.850;6.970;2022-08-19T08:39:07;10.13;;;3.80;;
60312;SDS011;46158;52.850;6.970;2022-08-19T08:41:40;11.73;;;4.20;;
60312;SDS011;46158;52.850;6.970;2022-08-19T08:44:20;10.90;;;3.67;;
60312;SDS011;46158;52.850;6.970;2022-08-19T08:46:54;12.30;;;4.25;;
60312;SDS011;46158;52.850;6.970;2022-08-19T08:49:29;13.48;;;4.32;;
60312;SDS011;46158;52.850;6.970;2022-08-19T08:52:06;11.30;;;4.05;;
60312;SDS011;46158;52.850;6.970;2022-08-19T08:54:41;11.10;;;3.55;;
60312;SDS011;46158;52.850;6.970;2022-08-19T08:57:13;11.50;;;3.85;;
60312;SDS011;46158;52.850;6.970;2022-08-19T08:59:45;12.40;;;4.03;;
60312;SDS011;46158;52.850;6.970;2022-08-19T09:02:17;12.40;;;4.15;;
60312;SDS011;46158;52.850;6.970;2022-08-19T09:04:43;8.10;;;3.35;;
60312;SDS011;46158;52.850;6.970;2022-08-19T09:07:23;9.27;;;3.70;;
60312;SDS011;46158;52.850;6.970;2022-08-19T09:10:02;10.70;;;3.55;;
60312;SDS011;46158;52.850;6.970;2022-08-19T09:15:14;10.32;;;3.90;;
60312;SDS011;46158;52.850;6.970;2022-08-19T09:17:42;8.38;;;3.58;;
60312;SDS011;46158;52.850;6.970;2022-08-19T09:22:35;13.52;;;3.80;;
60312;SDS011;46158;52.850;6.970;2022-08-19T09:25:02;8.63;;;3.47;;
60312;SDS011;46158;52.850;6.970;2022-08-19T09:27:29;7.30;;;3.50;;
60312;SDS011;46158;52.850;6.970;2022-08-19T09:29:57;12.70;;;3.95;;
60312;SDS011;46158;52.850;6.970;2022-08-19T09:32:23;13.52;;;3.75;;
60312;SDS011;46158;52.850;6.970;2022-08-19T09:34:51;12.02;;;4.43;;
60312;SDS011;46158;52.850;6.970;2022-08-19T09:37:19;11.15;;;3.92;;
60312;SDS011;46158;52.850;6.970;2022-08-19T09:39:46;12.85;;;4.15;;
60312;SDS011;46158;52.850;6.970;2022-08-19T09:42:12;13.80;;;4.40;;
60312;SDS011;46158;52.850;6.970;2022-08-19T09:44:39;11.60;;;4.40;;
60312;SDS011;46158;52.850;6.970;2022-08-19T09:47:06;15.75;;;4.40;;
60312;SDS011;46158;52.850;6.970;2022-08-19T09:49:33;14.40;;;4.25;;
60312;SDS011;46158;52.850;6.970;2022-08-19T09:51:59;11.65;;;4.00;;
60312;SDS011;46158;52.850;6.970;2022-08-19T09:54:25;11.55;;;4.05;;
60312;SDS011;46158;52.850;6.970;2022-08-19T09:56:52;12.80;;;3.90;;
60312;SDS011;46158;52.850;6.970;2022-08-19T09:59:18;12.48;;;4.22;;
60312;SDS011;46158;52.850;6.970;2022-08-19T10:01:45;14.13;;;4.00;;
60312;SDS011;46158;52.850;6.970;2022-08-19T10:04:11;11.45;;;4.00;;
60312;SDS011;46158;52.850;6.970;2022-08-19T10:06:37;12.82;;;4.15;;
60312;SDS011;46158;52.850;6.970;2022-08-19T10:09:05;9.65;;;3.90;;
60312;SDS011;46158;52.850;6.970;2022-08-19T10:11:35;11.90;;;3.92;;
60312;SDS011;46158;52.850;6.970;2022-08-19T10:14:04;12.95;;;4.07;;
60312;SDS011;46158;52.850;6.970;2022-08-19T10:16:30;12.13;;;3.90;;
60312;SDS011;46158;52.850;6.970;2022-08-19T10:18:57;11.60;;;4.25;;
60312;SDS011;46158;52.850;6.970;2022-08-19T10:21:24;10.80;;;3.92;;
60312;SDS011;46158;52.850;6.970;2022-08-19T10:23:52;11.68;;;4.05;;
60312;SDS011;46158;52.850;6.970;2022-08-19T10:26:23;11.80;;;4.30;;
60312;SDS011;46158;52.850;6.970;2022-08-19T10:28:50;11.00;;;3.93;;
60312;SDS011;46158;52.850;6.970;2022-08-19T10:31:20;11.13;;;3.40;;
60312;SDS011;46158;52.850;6.970;2022-08-19T10:33:51;14.20;;;4.50;;
60312;SDS011;46158;52.850;6.970;2022-08-19T10:36:23;15.88;;;4.80;;
60312;SDS011;46158;52.850;6.970;2022-08-19T10:38:51;11.20;;;4.13;;
60312;SDS011;46158;52.850;6.970;2022-08-19T10:41:20;15.85;;;3.78;;
60312;SDS011;46158;52.850;6.970;2022-08-19T10:43:51;10.70;;;3.55;;
60312;SDS011;46158;52.850;6.970;2022-08-19T10:46:23;11.52;;;4.25;;
60312;SDS011;46158;52.850;6.970;2022-08-19T10:48:50;12.13;;;3.80;;
60312;SDS011;46158;52.850;6.970;2022-08-19T10:51:16;10.07;;;3.80;;
60312;SDS011;46158;52.850;6.970;2022-08-19T10:54:01;9.23;;;3.70;;
60312;SDS011;46158;52.850;6.970;2022-08-19T10:56:28;11.27;;;3.75;;
60312;SDS011;46158;52.850;6.970;2022-08-19T10:59:14;12.57;;;3.90;;
60312;SDS011;46158;52.850;6.970;2022-08-19T11:01:41;14.07;;;4.25;;
60312;SDS011;46158;52.850;6.970;2022-08-19T11:04:08;12.45;;;4.10;;
60312;SDS011;46158;52.850;6.970;2022-08-19T11:06:36;9.25;;;3.97;;
60312;SDS011;46158;52.850;6.970;2022-08-19T11:09:03;12.70;;;4.50;;
60312;SDS011;46158;52.850;6.970;2022-08-19T11:11:30;11.88;;;4.00;;
60312;SDS011;46158;52.850;6.970;2022-08-19T11:13:57;10.52;;;3.75;;
60312;SDS011;46158;52.850;6.970;2022-08-19T11:16:24;10.95;;;3.50;;
60312;SDS011;46158;52.850;6.970;2022-08-19T11:18:56;9.68;;;3.72;;
60312;SDS011;46158;52.850;6.970;2022-08-19T11:21:25;11.07;;;3.80;;
60312;SDS011;46158;52.850;6.970;2022-08-19T11:24:03;9.65;;;3.90;;
60312;SDS011;46158;52.850;6.970;2022-08-19T11:26:34;11.07;;;4.00;;
60312;SDS011;46158;52.850;6.970;2022-08-19T11:29:00;12.50;;;4.25;;
60312;SDS011;46158;52.850;6.970;2022-08-19T11:31:27;11.77;;;4.20;;
60312;SDS011;46158;52.850;6.970;2022-08-19T11:33:58;8.38;;;3.55;;
60312;SDS011;46158;52.850;6.970;2022-08-19T11:36:28;13.05;;;4.18;;
60312;SDS011;46158;52.850;6.970;2022-08-19T11:38:55;10.70;;;4.10;;
60312;SDS011;46158;52.850;6.970;2022-08-19T11:41:21;11.38;;;4.10;;
60312;SDS011;46158;52.850;6.970;2022-08-19T11:43:49;12.25;;;4.43;;
60312;SDS011;46158;52.850;6.970;2022-08-19T11:46:18;13.45;;;4.13;;
60312;SDS011;46158;52.850;6.970;2022-08-19T11:48:44;14.32;;;5.07;;
60312;SDS011;46158;52.850;6.970;2022-08-19T11:51:14;10.90;;;4.40;;
60312;SDS011;46158;52.850;6.970;2022-08-19T11:53:43;13.02;;;4.60;;
60312;SDS011;46158;52.850;6.970;2022-08-19T11:56:10;13.82;;;4.82;;
60312;SDS011;46158;52.850;6.970;2022-08-19T11:58:36;11.85;;;4.30;;
60312;SDS011;46158;52.850;6.970;2022-08-19T12:01:06;10.93;;;4.70;;
60312;SDS011;46158;52.850;6.970;2022-08-19T12:03:44;11.95;;;4.55;;
60312;SDS011;46158;52.850;6.970;2022-08-19T12:06:12;12.75;;;4.82;;
60312;SDS011;46158;52.850;6.970;2022-08-19T12:08:43;11.02;;;4.28;;
60312;SDS011;46158;52.850;6.970;2022-08-19T12:11:10;12.95;;;4.60;;
60312;SDS011;46158;52.850;6.970;2022-08-19T12:13:38;12.55;;;4.45;;
60312;SDS011;46158;52.850;6.970;2022-08-19T12:16:12;13.98;;;4.60;;
60312;SDS011;46158;52.850;6.970;2022-08-19T12:18:40;11.52;;;4.60;;
60312;SDS011;46158;52.850;6.970;2022-08-19T12:21:10;13.95;;;4.60;;
60312;SDS011;46158;52.850;6.970;2022-08-19T12:23:38;12.75;;;4.70;;
60312;SDS011;46158;52.850;6.970;2022-08-19T12:26:05;12.77;;;5.20;;
60312;SDS011;46158;52.850;6.970;2022-08-19T12:28:30;14.20;;;5.10;;
60312;SDS011;46158;52.850;6.970;2022-08-19T12:30:56;12.70;;;4.65;;
60312;SDS011;46158;52.850;6.970;2022-08-19T12:33:22;14.80;;;5.15;;
60312;SDS011;46158;52.850;6.970;2022-08-19T12:35:50;16.90;;;5.88;;
60312;SDS011;46158;52.850;6.970;2022-08-19T12:38:17;14.07;;;4.90;;
60312;SDS011;46158;52.850;6.970;2022-08-19T12:40:46;14.07;;;5.20;;
60312;SDS011;46158;52.850;6.970;2022-08-19T12:43:13;14.05;;;5.50;;
60312;SDS011;46158;52.850;6.970;2022-08-19T12:45:41;14.60;;;5.00;;
60312;SDS011;46158;52.850;6.970;2022-08-19T12:48:07;13.13;;;5.20;;
60312;SDS011;46158;52.850;6.970;2022-08-19T12:50:33;14.68;;;5.40;;
60312;SDS011;46158;52.850;6.970;2022-08-19T12:52:59;14.75;;;5.22;;
60312;SDS011;46158;52.850;6.970;2022-08-19T12:55:26;14.07;;;5.30;;
60312;SDS011;46158;52.850;6.970;2022-08-19T12:57:53;17.27;;;6.22;;
60312;SDS011;46158;52.850;6.970;2022-08-19T13:00:19;14.43;;;5.82;;
60312;SDS011;46158;52.850;6.970;2022-08-19T13:02:47;17.30;;;6.03;;
60312;SDS011;46158;52.850;6.970;2022-08-19T13:05:20;13.30;;;5.20;;
60312;SDS011;46158;52.850;6.970;2022-08-19T13:07:48;15.40;;;6.00;;
60312;SDS011;46158;52.850;6.970;2022-08-19T13:10:16;15.55;;;5.90;;
60312;SDS011;46158;52.850;6.970;2022-08-19T13:12:45;14.27;;;5.70;;
60312;SDS011;46158;52.850;6.970;2022-08-19T13:15:12;15.55;;;5.90;;
60312;SDS011;46158;52.850;6.970;2022-08-19T13:17:39;15.75;;;5.90;;
60312;SDS011;46158;52.850;6.970;2022-08-19T13:20:05;16.00;;;5.68;;
60312;SDS011;46158;52.850;6.970;2022-08-19T13:22:35;17.73;;;7.47;;
60312;SDS011;46158;52.850;6.970;2022-08-19T13:25:03;16.67;;;6.20;;
60312;SDS011;46158;52.850;6.970;2022-08-19T13:27:32;17.27;;;6.10;;
60312;SDS011;46158;52.850;6.970;2022-08-19T13:29:58;16.48;;;6.10;;
60312;SDS011;46158;52.850;6.970;2022-08-19T13:32:43;18.20;;;6.90;;
60312;SDS011;46158;52.850;6.970;2022-08-19T13:35:27;15.82;;;6.43;;
60312;SDS011;46158;52.850;6.970;2022-08-19T13:37:53;17.40;;;6.60;;
60312;SDS011;46158;52.850;6.970;2022-08-19T13:40:20;16.65;;;5.97;;
60312;SDS011;46158;52.850;6.970;2022-08-19T13:42:49;15.50;;;6.03;;
60312;SDS011;46158;52.850;6.970;2022-08-19T13:45:18;14.57;;;5.40;;
60312;SDS011;46158;52.850;6.970;2022-08-19T13:47:45;16.17;;;5.80;;
60312;SDS011;46158;52.850;6.970;2022-08-19T13:50:14;16.65;;;6.07;;
60312;SDS011;46158;52.850;6.970;2022-08-19T13:52:47;15.52;;;5.93;;
60312;SDS011;46158;52.850;6.970;2022-08-19T13:55:13;15.80;;;5.90;;
60312;SDS011;46158;52.850;6.970;2022-08-19T13:57:39;14.48;;;5.95;;
60312;SDS011;46158;52.850;6.970;2022-08-19T14:00:11;16.98;;;7.18;;
60312;SDS011;46158;52.850;6.970;2022-08-19T14:02:39;16.40;;;6.32;;
60312;SDS011;46158;52.850;6.970;2022-08-19T14:05:06;19.00;;;6.43;;
60312;SDS011;46158;52.850;6.970;2022-08-19T14:07:35;17.75;;;6.82;;
60312;SDS011;46158;52.850;6.970;2022-08-19T14:10:01;16.65;;;6.47;;
60312;SDS011;46158;52.850;6.970;2022-08-19T14:12:29;18.02;;;6.65;;
60312;SDS011;46158;52.850;6.970;2022-08-19T14:14:57;15.45;;;5.88;;
60312;SDS011;46158;52.850;6.970;2022-08-19T14:17:23;15.30;;;5.80;;
60312;SDS011;46158;52.850;6.970;2022-08-19T14:19:50;17.02;;;5.80;;
60312;SDS011;46158;52.850;6.970;2022-08-19T14:22:21;13.57;;;5.20;;
60312;SDS011;46158;52.850;6.970;2022-08-19T14:24:47;17.00;;;5.78;;
60312;SDS011;46158;52.850;6.970;2022-08-19T14:27:13;13.82;;;5.43;;
60312;SDS011;46158;52.850;6.970;2022-08-19T14:29:39;13.52;;;5.28;;
60312;SDS011;46158;52.850;6.970;2022-08-19T14:32:05;14.35;;;5.88;;
60312;SDS011;46158;52.850;6.970;2022-08-19T14:34:30;15.90;;;5.82;;
60312;SDS011;46158;52.850;6.970;2022-08-19T14:36:57;14.38;;;5.32;;
60312;SDS011;46158;52.850;6.970;2022-08-19T14:39:23;14.80;;;5.95;;
60312;SDS011;46158;52.850;6.970;2022-08-19T14:41:48;15.30;;;5.72;;
60312;SDS011;46158;52.850;6.970;2022-08-19T14:44:14;19.33;;;6.35;;
60312;SDS011;46158;52.850;6.970;2022-08-19T14:46:40;12.55;;;5.20;;
60312;SDS011;46158;52.850;6.970;2022-08-19T14:49:06;14.57;;;5.05;;
60312;SDS011;46158;52.850;6.970;2022-08-19T14:51:32;15.10;;;5.78;;
60312;SDS011;46158;52.850;6.970;2022-08-19T14:53:58;17.83;;;5.60;;
60312;SDS011;46158;52.850;6.970;2022-08-19T14:56:25;13.95;;;5.25;;